sensor_id;sensor_type;location;lat;lon;timestamp;P1;durP1;ratioP1;P2;durP2;ratioP2
9834;SDS011;4956;50.996;13.716;2023-04-25T00:02:39;10.68;;;7.45;;
9834;SDS011;4956;50.996;13.716;2023-04-25T00:06:00;10.00;;;7.20;;
9834;SDS011;4956;50.996;13.716;2023-04-25T00:09:24;9.50;;;6.60;;
9834;SDS011;4956;50.996;13.716;2023-04-25T00:12:44;11.50;;;7.22;;
9834;SDS011;4956;50.996;13.716;2023-04-25T00:16:05;10.20;;;7.03;;
9834;SDS011;4956;50.996;13.716;2023-04-25T00:19:26;9.32;;;6.72;;
9834;SDS011;4956;50.996;13.716;2023-04-25T00:22:48;11.23;;;6.90;;
9834;SDS011;4956;50.996;13.716;2023-04-25T00:26:09;11.77;;;7.32;;
9834;SDS011;4956;50.996;13.716;2023-04-25T00:29:30;11.73;;;7.30;;
9834;SDS011;4956;50.996;13.716;2023-04-25T00:32:51;10.60;;;7.47;;
9834;SDS011;4956;50.996;13.716;2023-04-25T00:36:12;9.40;;;7.38;;
9834;SDS011;4956;50.996;13.716;2023-04-25T00:39:32;10.20;;;7.60;;
9834;SDS011;4956;50.996;13.716;2023-04-25T00:42:53;10.02;;;7.22;;
9834;SDS011;4956;50.996;13.716;2023-04-25T00:46:15;11.27;;;7.65;;
9834;SDS011;4956;50.996;13.716;2023-04-25T00:49:35;10.13;;;7.45;;
9834;SDS011;4956;50.996;13.716;2023-04-25T00:52:57;11.70;;;7.50;;
9834;SDS011;4956;50.996;13.716;2023-04-25T00:56:18;9.65;;;6.65;;
9834;SDS011;4956;50.996;13.716;2023-04-25T00:59:40;9.70;;;6.57;;
9834;SDS011;4956;50.996;13.716;2023-04-25T01:03:04;8.75;;;6.80;;
9834;SDS011;4956;50.996;13.716;2023-04-25T01:06:25;11.50;;;7.28;;
9834;SDS011;4956;50.996;13.716;2023-04-25T01:09:46;9.98;;;7.63;;
9834;SDS011;4956;50.996;13.716;2023-04-25T01:13:06;13.43;;;8.30;;
9834;SDS011;4956;50.996;13.716;2023-04-25T01:16:27;13.02;;;7.88;;
9834;SDS011;4956;50.996;13.716;2023-04-25T01:19:48;12.20;;;8.63;;
9834;SDS011;4956;50.996;13.716;2023-04-25T01:23:09;12.63;;;7.90;;
9834;SDS011;4956;50.996;13.716;2023-04-25T01:26:30;13.07;;;8.57;;
9834;SDS011;4956;50.996;13.716;2023-04-25T01:29:51;11.85;;;8.02;;
9834;SDS011;4956;50.996;13.716;2023-04-25T01:33:12;12.52;;;8.15;;
9834;SDS011;4956;50.996;13.716;2023-04-25T01:36:34;12.20;;;8.00;;
9834;SDS011;4956;50.996;13.716;2023-04-25T01:39:55;12.07;;;7.88;;
9834;SDS011;4956;50.996;13.716;2023-04-25T01:43:16;12.48;;;8.60;;
9834;SDS011;4956;50.996;13.716;2023-04-25T01:46:37;11.90;;;8.57;;
9834;SDS011;4956;50.996;13.716;2023-04-25T01:49:58;12.18;;;8.30;;
9834;SDS011;4956;50.996;13.716;2023-04-25T01:53:19;14.52;;;9.00;;
9834;SDS011;4956;50.996;13.716;2023-04-25T01:56:41;14.10;;;8.90;;
9834;SDS011;4956;50.996;13.716;2023-04-25T02:00:05;14.63;;;9.02;;
9834;SDS011;4956;50.996;13.716;2023-04-25T02:03:34;13.20;;;8.48;;
9834;SDS011;4956;50.996;13.716;2023-04-25T02:06:58;14.38;;;9.68;;
9834;SDS011;4956;50.996;13.716;2023-04-25T02:10:26;14.95;;;9.55;;
9834;SDS011;4956;50.996;13.716;2023-04-25T02:14:19;13.95;;;9.23;;
9834;SDS011;4956;50.996;13.716;2023-04-25T02:17:53;18.50;;;10.10;;
9834;SDS011;4956;50.996;13.716;2023-04-25T02:21:14;15.88;;;10.00;;
9834;SDS011;4956;50.996;13.716;2023-04-25T02:24:38;16.48;;;9.88;;
9834;SDS011;4956;50.996;13.716;2023-04-25T02:27:59;15.23;;;10.00;;
9834;SDS011;4956;50.996;13.716;2023-04-25T02:31:20;14.82;;;9.95;;
9834;SDS011;4956;50.996;13.716;2023-04-25T02:34:40;16.17;;;10.25;;
9834;SDS011;4956;50.996;13.716;2023-04-25T02:38:01;15.45;;;9.95;;
9834;SDS011;4956;50.996;13.716;2023-04-25T02:41:23;16.10;;;9.10;;
9834;SDS011;4956;50.996;13.716;2023-04-25T02:44:43;14.20;;;9.50;;
9834;SDS011;4956;50.996;13.716;2023-04-25T02:48:04;20.30;;;9.45;;
9834;SDS011;4956;50.996;13.716;2023-04-25T02:51:26;16.50;;;9.48;;
9834;SDS011;4956;50.996;13.716;2023-04-25T02:54:46;14.35;;;9.75;;
9834;SDS011;4956;50.996;13.716;2023-04-25T02:58:07;17.15;;;10.00;;
9834;SDS011;4956;50.996;13.716;2023-04-25T03:01:40;12.65;;;9.48;;
9834;SDS011;4956;50.996;13.716;2023-04-25T03:05:01;14.65;;;10.38;;
9834;SDS011;4956;50.996;13.716;2023-04-25T03:08:23;16.23;;;10.30;;
9834;SDS011;4956;50.996;13.716;2023-04-25T03:11:45;14.77;;;10.05;;
9834;SDS011;4956;50.996;13.716;2023-04-25T03:15:06;18.80;;;10.48;;
9834;SDS011;4956;50.996;13.716;2023-04-25T03:18:27;15.48;;;10.40;;
9834;SDS011;4956;50.996;13.716;2023-04-25T03:21:48;16.40;;;9.85;;
9834;SDS011;4956;50.996;13.716;2023-04-25T03:25:09;15.48;;;9.88;;
9834;SDS011;4956;50.996;13.716;2023-04-25T03:28:30;15.30;;;9.88;;
9834;SDS011;4956;50.996;13.716;2023-04-25T03:31:51;15.75;;;10.13;;
9834;SDS011;4956;50.996;13.716;2023-04-25T03:35:13;18.67;;;10.80;;
9834;SDS011;4956;50.996;13.716;2023-04-25T03:38:34;17.30;;;9.48;;
9834;SDS011;4956;50.996;13.716;2023-04-25T03:41:55;17.35;;;10.68;;
9834;SDS011;4956;50.996;13.716;2023-04-25T03:45:15;17.30;;;10.32;;
9834;SDS011;4956;50.996;13.716;2023-04-25T03:48:36;20.50;;;11.90;;
9834;SDS011;4956;50.996;13.716;2023-04-25T03:51:57;21.27;;;12.10;;
9834;SDS011;4956;50.996;13.716;2023-04-25T03:55:18;16.50;;;10.60;;
9834;SDS011;4956;50.996;13.716;2023-04-25T03:58:39;17.88;;;11.05;;
9834;SDS011;4956;50.996;13.716;2023-04-25T04:02:00;18.65;;;11.48;;
9834;SDS011;4956;50.996;13.716;2023-04-25T04:05:22;16.65;;;10.70;;
9834;SDS011;4956;50.996;13.716;2023-04-25T04:08:47;16.58;;;10.80;;
9834;SDS011;4956;50.996;13.716;2023-04-25T04:12:08;17.63;;;11.02;;
9834;SDS011;4956;50.996;13.716;2023-04-25T04:15:31;17.30;;;11.10;;
9834;SDS011;4956;50.996;13.716;2023-04-25T04:18:53;18.77;;;10.65;;
9834;SDS011;4956;50.996;13.716;2023-04-25T04:22:14;19.73;;;11.63;;
9834;SDS011;4956;50.996;13.716;2023-04-25T04:25:35;21.20;;;11.95;;
9834;SDS011;4956;50.996;13.716;2023-04-25T04:29:11;19.23;;;11.85;;
9834;SDS011;4956;50.996;13.716;2023-04-25T04:32:42;19.85;;;12.95;;
9834;SDS011;4956;50.996;13.716;2023-04-25T04:36:03;20.45;;;12.80;;
9834;SDS011;4956;50.996;13.716;2023-04-25T04:39:25;21.02;;;13.23;;
9834;SDS011;4956;50.996;13.716;2023-04-25T04:43:05;19.55;;;12.32;;
9834;SDS011;4956;50.996;13.716;2023-04-25T04:46:49;20.85;;;13.40;;
9834;SDS011;4956;50.996;13.716;2023-04-25T04:50:26;20.63;;;13.15;;
9834;SDS011;4956;50.996;13.716;2023-04-25T04:54:07;22.05;;;12.40;;
9834;SDS011;4956;50.996;13.716;2023-04-25T04:57:48;26.85;;;14.40;;
9834;SDS011;4956;50.996;13.716;2023-04-25T05:01:29;18.30;;;11.30;;
9834;SDS011;4956;50.996;13.716;2023-04-25T05:05:13;11.43;;;7.68;;
9834;SDS011;4956;50.996;13.716;2023-04-25T05:09:03;12.82;;;7.70;;
9834;SDS011;4956;50.996;13.716;2023-04-25T05:12:37;9.95;;;7.05;;
9834;SDS011;4956;50.996;13.716;2023-04-25T05:16:06;11.25;;;7.13;;
9834;SDS011;4956;50.996;13.716;2023-04-25T05:19:47;9.60;;;6.07;;
9834;SDS011;4956;50.996;13.716;2023-04-25T05:23:12;9.95;;;5.95;;
9834;SDS011;4956;50.996;13.716;2023-04-25T05:26:46;7.47;;;5.40;;
9834;SDS011;4956;50.996;13.716;2023-04-25T05:30:28;8.80;;;5.35;;
9834;SDS011;4956;50.996;13.716;2023-04-25T05:33:59;9.80;;;5.47;;
9834;SDS011;4956;50.996;13.716;2023-04-25T05:37:30;9.27;;;5.47;;
9834;SDS011;4956;50.996;13.716;2023-04-25T05:41:02;11.90;;;7.22;;
9834;SDS011;4956;50.996;13.716;2023-04-25T05:44:38;7.78;;;4.57;;
9834;SDS011;4956;50.996;13.716;2023-04-25T05:48:25;8.85;;;4.82;;
9834;SDS011;4956;50.996;13.716;2023-04-25T05:52:03;8.02;;;4.88;;
9834;SDS011;4956;50.996;13.716;2023-04-25T05:55:26;10.38;;;6.10;;
9834;SDS011;4956;50.996;13.716;2023-04-25T05:58:48;11.27;;;5.95;;
9834;SDS011;4956;50.996;13.716;2023-04-25T06:02:09;7.50;;;4.80;;
9834;SDS011;4956;50.996;13.716;2023-04-25T06:05:32;12.35;;;6.30;;
9834;SDS011;4956;50.996;13.716;2023-04-25T06:08:53;9.48;;;5.57;;
9834;SDS011;4956;50.996;13.716;2023-04-25T06:12:14;9.45;;;5.97;;
9834;SDS011;4956;50.996;13.716;2023-04-25T06:15:35;9.90;;;5.60;;
9834;SDS011;4956;50.996;13.716;2023-04-25T06:18:56;8.07;;;4.25;;
9834;SDS011;4956;50.996;13.716;2023-04-25T06:22:16;7.05;;;4.40;;
9834;SDS011;4956;50.996;13.716;2023-04-25T06:25:37;9.32;;;4.70;;
9834;SDS011;4956;50.996;13.716;2023-04-25T06:28:58;7.47;;;4.13;;
9834;SDS011;4956;50.996;13.716;2023-04-25T06:32:19;6.80;;;4.53;;
9834;SDS011;4956;50.996;13.716;2023-04-25T06:35:40;7.50;;;4.50;;
9834;SDS011;4956;50.996;13.716;2023-04-25T06:39:04;8.32;;;4.07;;
9834;SDS011;4956;50.996;13.716;2023-04-25T06:42:27;7.18;;;4.25;;
9834;SDS011;4956;50.996;13.716;2023-04-25T06:45:52;5.43;;;4.03;;
9834;SDS011;4956;50.996;13.716;2023-04-25T06:49:14;6.75;;;4.40;;
9834;SDS011;4956;50.996;13.716;2023-04-25T06:52:36;6.20;;;3.67;;
9834;SDS011;4956;50.996;13.716;2023-04-25T06:55:57;5.75;;;4.00;;
9834;SDS011;4956;50.996;13.716;2023-04-25T06:59:22;4.95;;;3.60;;
9834;SDS011;4956;50.996;13.716;2023-04-25T07:02:44;6.78;;;3.67;;
9834;SDS011;4956;50.996;13.716;2023-04-25T07:06:06;7.32;;;4.13;;
9834;SDS011;4956;50.996;13.716;2023-04-25T07:09:27;6.32;;;3.70;;
9834;SDS011;4956;50.996;13.716;2023-04-25T07:12:48;6.95;;;3.97;;
9834;SDS011;4956;50.996;13.716;2023-04-25T07:16:09;6.95;;;4.30;;
9834;SDS011;4956;50.996;13.716;2023-04-25T07:19:30;6.22;;;3.92;;
9834;SDS011;4956;50.996;13.716;2023-04-25T07:22:54;5.45;;;3.90;;
9834;SDS011;4956;50.996;13.716;2023-04-25T07:26:15;6.95;;;3.95;;
9834;SDS011;4956;50.996;13.716;2023-04-25T07:29:56;5.65;;;4.10;;
9834;SDS011;4956;50.996;13.716;2023-04-25T07:33:17;7.35;;;4.13;;
9834;SDS011;4956;50.996;13.716;2023-04-25T07:36:40;7.78;;;4.50;;
9834;SDS011;4956;50.996;13.716;2023-04-25T07:40:04;7.95;;;4.95;;
9834;SDS011;4956;50.996;13.716;2023-04-25T07:43:26;8.68;;;4.70;;
9834;SDS011;4956;50.996;13.716;2023-04-25T07:46:51;8.27;;;5.43;;
9834;SDS011;4956;50.996;13.716;2023-04-25T07:50:12;7.10;;;4.90;;
9834;SDS011;4956;50.996;13.716;2023-04-25T07:53:32;5.68;;;3.83;;
9834;SDS011;4956;50.996;13.716;2023-04-25T07:56:59;6.28;;;3.35;;
9834;SDS011;4956;50.996;13.716;2023-04-25T08:00:23;6.55;;;3.70;;
9834;SDS011;4956;50.996;13.716;2023-04-25T08:03:55;6.55;;;3.72;;
9834;SDS011;4956;50.996;13.716;2023-04-25T08:07:39;6.35;;;3.30;;
9834;SDS011;4956;50.996;13.716;2023-04-25T08:11:01;4.95;;;2.80;;
9834;SDS011;4956;50.996;13.716;2023-04-25T08:14:21;5.32;;;2.40;;
9834;SDS011;4956;50.996;13.716;2023-04-25T08:17:42;6.53;;;2.70;;
9834;SDS011;4956;50.996;13.716;2023-04-25T08:21:04;4.40;;;2.58;;
9834;SDS011;4956;50.996;13.716;2023-04-25T08:24:25;3.88;;;2.78;;
9834;SDS011;4956;50.996;13.716;2023-04-25T08:27:46;2.92;;;2.35;;
9834;SDS011;4956;50.996;13.716;2023-04-25T08:31:07;4.00;;;2.75;;
9834;SDS011;4956;50.996;13.716;2023-04-25T08:34:37;4.38;;;2.38;;
9834;SDS011;4956;50.996;13.716;2023-04-25T08:38:02;3.05;;;2.10;;
9834;SDS011;4956;50.996;13.716;2023-04-25T08:41:23;4.57;;;2.30;;
9834;SDS011;4956;50.996;13.716;2023-04-25T08:44:45;3.58;;;2.20;;
9834;SDS011;4956;50.996;13.716;2023-04-25T08:48:14;5.40;;;2.47;;
9834;SDS011;4956;50.996;13.716;2023-04-25T08:51:37;5.40;;;2.40;;
9834;SDS011;4956;50.996;13.716;2023-04-25T08:55:06;4.05;;;1.80;;
9834;SDS011;4956;50.996;13.716;2023-04-25T08:58:28;3.13;;;1.95;;
9834;SDS011;4956;50.996;13.716;2023-04-25T09:01:49;4.05;;;2.38;;
9834;SDS011;4956;50.996;13.716;2023-04-25T09:05:12;3.78;;;1.88;;
9834;SDS011;4956;50.996;13.716;2023-04-25T09:08:33;2.90;;;1.90;;
9834;SDS011;4956;50.996;13.716;2023-04-25T09:11:56;3.80;;;2.30;;
9834;SDS011;4956;50.996;13.716;2023-04-25T09:15:19;4.45;;;2.65;;
9834;SDS011;4956;50.996;13.716;2023-04-25T09:18:54;5.43;;;3.13;;
9834;SDS011;4956;50.996;13.716;2023-04-25T09:22:15;5.72;;;3.28;;
9834;SDS011;4956;50.996;13.716;2023-04-25T09:25:41;7.03;;;4.25;;
9834;SDS011;4956;50.996;13.716;2023-04-25T09:29:05;7.82;;;4.15;;
9834;SDS011;4956;50.996;13.716;2023-04-25T09:32:28;8.98;;;4.45;;
9834;SDS011;4956;50.996;13.716;2023-04-25T09:35:51;10.85;;;4.53;;
9834;SDS011;4956;50.996;13.716;2023-04-25T09:39:32;7.38;;;4.50;;
9834;SDS011;4956;50.996;13.716;2023-04-25T09:43:01;7.95;;;4.75;;
9834;SDS011;4956;50.996;13.716;2023-04-25T09:46:23;7.70;;;4.88;;
9834;SDS011;4956;50.996;13.716;2023-04-25T09:49:48;7.72;;;4.70;;
9834;SDS011;4956;50.996;13.716;2023-04-25T09:53:09;5.22;;;4.20;;
9834;SDS011;4956;50.996;13.716;2023-04-25T09:56:56;5.75;;;4.30;;
9834;SDS011;4956;50.996;13.716;2023-04-25T10:00:18;6.93;;;4.22;;
9834;SDS011;4956;50.996;13.716;2023-04-25T10:03:39;7.30;;;4.38;;
9834;SDS011;4956;50.996;13.716;2023-04-25T10:07:11;6.22;;;4.47;;
9834;SDS011;4956;50.996;13.716;2023-04-25T10:10:32;4.85;;;4.00;;
9834;SDS011;4956;50.996;13.716;2023-04-25T10:13:56;4.85;;;4.35;;
9834;SDS011;4956;50.996;13.716;2023-04-25T10:17:16;5.88;;;4.60;;
9834;SDS011;4956;50.996;13.716;2023-04-25T10:20:39;5.05;;;4.10;;
9834;SDS011;4956;50.996;13.716;2023-04-25T10:24:00;5.75;;;3.58;;
9834;SDS011;4956;50.996;13.716;2023-04-25T10:27:21;3.80;;;2.75;;
9834;SDS011;4956;50.996;13.716;2023-04-25T10:34:17;5.45;;;4.38;;
9834;SDS011;4956;50.996;13.716;2023-04-25T10:37:44;5.82;;;5.00;;
9834;SDS011;4956;50.996;13.716;2023-04-25T10:41:46;7.38;;;4.80;;
9834;SDS011;4956;50.996;13.716;2023-04-25T10:45:08;7.93;;;5.75;;
9834;SDS011;4956;50.996;13.716;2023-04-25T10:48:30;9.00;;;6.05;;
9834;SDS011;4956;50.996;13.716;2023-04-25T10:51:58;6.65;;;5.38;;
9834;SDS011;4956;50.996;13.716;2023-04-25T10:55:48;7.28;;;5.30;;
9834;SDS011;4956;50.996;13.716;2023-04-25T10:59:11;7.45;;;3.92;;
9834;SDS011;4956;50.996;13.716;2023-04-25T11:02:31;5.95;;;4.63;;
9834;SDS011;4956;50.996;13.716;2023-04-25T11:05:57;6.15;;;4.93;;
9834;SDS011;4956;50.996;13.716;2023-04-25T11:09:19;7.50;;;4.95;;
9834;SDS011;4956;50.996;13.716;2023-04-25T11:12:44;8.57;;;5.22;;
9834;SDS011;4956;50.996;13.716;2023-04-25T11:16:07;8.25;;;5.93;;
9834;SDS011;4956;50.996;13.716;2023-04-25T11:19:28;9.02;;;6.85;;
9834;SDS011;4956;50.996;13.716;2023-04-25T11:22:49;14.20;;;7.80;;
9834;SDS011;4956;50.996;13.716;2023-04-25T11:26:09;11.57;;;8.45;;
9834;SDS011;4956;50.996;13.716;2023-04-25T11:29:32;13.82;;;8.85;;
9834;SDS011;4956;50.996;13.716;2023-04-25T11:32:53;12.82;;;8.70;;
9834;SDS011;4956;50.996;13.716;2023-04-25T11:36:15;10.95;;;7.60;;
9834;SDS011;4956;50.996;13.716;2023-04-25T11:39:36;11.77;;;7.22;;
9834;SDS011;4956;50.996;13.716;2023-04-25T11:42:56;11.85;;;7.28;;
9834;SDS011;4956;50.996;13.716;2023-04-25T11:46:20;10.35;;;5.47;;
9834;SDS011;4956;50.996;13.716;2023-04-25T11:49:42;10.55;;;4.72;;
9834;SDS011;4956;50.996;13.716;2023-04-25T11:53:02;11.85;;;4.43;;
9834;SDS011;4956;50.996;13.716;2023-04-25T11:56:24;7.57;;;4.25;;
9834;SDS011;4956;50.996;13.716;2023-04-25T11:59:44;7.43;;;4.18;;
9834;SDS011;4956;50.996;13.716;2023-04-25T12:03:05;9.52;;;4.20;;
9834;SDS011;4956;50.996;13.716;2023-04-25T12:06:29;12.95;;;4.47;;
9834;SDS011;4956;50.996;13.716;2023-04-25T12:09:51;11.65;;;4.03;;
9834;SDS011;4956;50.996;13.716;2023-04-25T12:16:40;7.82;;;3.80;;
9834;SDS011;4956;50.996;13.716;2023-04-25T12:20:11;7.65;;;3.10;;
9834;SDS011;4956;50.996;13.716;2023-04-25T12:23:34;8.25;;;3.80;;
9834;SDS011;4956;50.996;13.716;2023-04-25T12:30:20;7.75;;;3.38;;
9834;SDS011;4956;50.996;13.716;2023-04-25T12:33:40;8.02;;;3.22;;
9834;SDS011;4956;50.996;13.716;2023-04-25T12:37:02;6.85;;;3.28;;
9834;SDS011;4956;50.996;13.716;2023-04-25T12:40:23;8.82;;;3.25;;
9834;SDS011;4956;50.996;13.716;2023-04-25T12:43:44;6.65;;;3.10;;
9834;SDS011;4956;50.996;13.716;2023-04-25T12:47:04;7.32;;;3.20;;
9834;SDS011;4956;50.996;13.716;2023-04-25T12:50:25;7.97;;;3.65;;
9834;SDS011;4956;50.996;13.716;2023-04-25T12:53:46;8.25;;;3.33;;
9834;SDS011;4956;50.996;13.716;2023-04-25T12:57:07;8.43;;;3.63;;
9834;SDS011;4956;50.996;13.716;2023-04-25T13:00:28;9.43;;;4.10;;
9834;SDS011;4956;50.996;13.716;2023-04-25T13:03:49;10.50;;;4.07;;
9834;SDS011;4956;50.996;13.716;2023-04-25T13:07:10;9.43;;;3.80;;
9834;SDS011;4956;50.996;13.716;2023-04-25T13:10:30;9.35;;;4.07;;
9834;SDS011;4956;50.996;13.716;2023-04-25T13:13:51;9.20;;;3.90;;
9834;SDS011;4956;50.996;13.716;2023-04-25T13:17:12;13.82;;;4.43;;
9834;SDS011;4956;50.996;13.716;2023-04-25T13:20:32;9.05;;;4.30;;
9834;SDS011;4956;50.996;13.716;2023-04-25T13:23:53;10.27;;;4.88;;
9834;SDS011;4956;50.996;13.716;2023-04-25T13:27:14;14.32;;;5.75;;
9834;SDS011;4956;50.996;13.716;2023-04-25T13:30:34;15.35;;;4.95;;
9834;SDS011;4956;50.996;13.716;2023-04-25T13:33:55;14.07;;;5.82;;
9834;SDS011;4956;50.996;13.716;2023-04-25T13:37:16;10.30;;;4.50;;
9834;SDS011;4956;50.996;13.716;2023-04-25T13:40:36;12.63;;;4.50;;
9834;SDS011;4956;50.996;13.716;2023-04-25T13:43:57;10.20;;;4.65;;
9834;SDS011;4956;50.996;13.716;2023-04-25T13:47:17;11.90;;;5.60;;
9834;SDS011;4956;50.996;13.716;2023-04-25T13:50:38;14.13;;;5.03;;
9834;SDS011;4956;50.996;13.716;2023-04-25T13:53:59;14.40;;;4.50;;
9834;SDS011;4956;50.996;13.716;2023-04-25T13:57:19;16.80;;;4.85;;
9834;SDS011;4956;50.996;13.716;2023-04-25T14:00:40;12.30;;;5.88;;
9834;SDS011;4956;50.996;13.716;2023-04-25T14:04:03;16.35;;;6.68;;
9834;SDS011;4956;50.996;13.716;2023-04-25T14:07:24;17.40;;;6.55;;
9834;SDS011;4956;50.996;13.716;2023-04-25T14:10:45;20.05;;;6.30;;
9834;SDS011;4956;50.996;13.716;2023-04-25T14:14:06;14.80;;;5.70;;
9834;SDS011;4956;50.996;13.716;2023-04-25T14:17:26;14.07;;;5.38;;
9834;SDS011;4956;50.996;13.716;2023-04-25T14:20:47;17.50;;;5.45;;
9834;SDS011;4956;50.996;13.716;2023-04-25T14:24:09;16.33;;;5.43;;
9834;SDS011;4956;50.996;13.716;2023-04-25T14:27:33;15.80;;;5.25;;
9834;SDS011;4956;50.996;13.716;2023-04-25T14:30:53;17.10;;;6.80;;
9834;SDS011;4956;50.996;13.716;2023-04-25T14:34:14;18.23;;;5.93;;
9834;SDS011;4956;50.996;13.716;2023-04-25T14:37:35;17.13;;;5.68;;
9834;SDS011;4956;50.996;13.716;2023-04-25T14:40:55;15.52;;;5.15;;
9834;SDS011;4956;50.996;13.716;2023-04-25T14:44:16;13.30;;;5.22;;
9834;SDS011;4956;50.996;13.716;2023-04-25T14:47:37;11.50;;;5.20;;
9834;SDS011;4956;50.996;13.716;2023-04-25T14:50:58;13.73;;;5.60;;
9834;SDS011;4956;50.996;13.716;2023-04-25T14:54:20;11.20;;;4.78;;
9834;SDS011;4956;50.996;13.716;2023-04-25T14:57:40;13.25;;;5.68;;
9834;SDS011;4956;50.996;13.716;2023-04-25T15:01:01;20.17;;;5.72;;
9834;SDS011;4956;50.996;13.716;2023-04-25T15:04:21;11.77;;;5.82;;
9834;SDS011;4956;50.996;13.716;2023-04-25T15:07:42;15.52;;;5.65;;
9834;SDS011;4956;50.996;13.716;2023-04-25T15:11:03;12.10;;;5.45;;
9834;SDS011;4956;50.996;13.716;2023-04-25T15:14:24;14.18;;;5.45;;
9834;SDS011;4956;50.996;13.716;2023-04-25T15:17:44;11.20;;;5.38;;
9834;SDS011;4956;50.996;13.716;2023-04-25T15:21:05;13.98;;;6.25;;
9834;SDS011;4956;50.996;13.716;2023-04-25T15:24:26;13.23;;;5.00;;
9834;SDS011;4956;50.996;13.716;2023-04-25T15:27:47;11.13;;;4.90;;
9834;SDS011;4956;50.996;13.716;2023-04-25T15:31:08;16.98;;;6.07;;
9834;SDS011;4956;50.996;13.716;2023-04-25T15:34:29;14.15;;;4.82;;
9834;SDS011;4956;50.996;13.716;2023-04-25T15:37:49;14.40;;;4.70;;
9834;SDS011;4956;50.996;13.716;2023-04-25T15:41:11;11.90;;;4.15;;
9834;SDS011;4956;50.996;13.716;2023-04-25T15:44:32;11.38;;;3.85;;
9834;SDS011;4956;50.996;13.716;2023-04-25T15:47:54;11.63;;;3.20;;
9834;SDS011;4956;50.996;13.716;2023-04-25T15:51:15;9.13;;;2.90;;
9834;SDS011;4956;50.996;13.716;2023-04-25T15:54:37;8.93;;;2.80;;
9834;SDS011;4956;50.996;13.716;2023-04-25T15:57:58;8.70;;;2.55;;
9834;SDS011;4956;50.996;13.716;2023-04-25T16:01:18;8.52;;;2.70;;
9834;SDS011;4956;50.996;13.716;2023-04-25T16:04:43;10.02;;;3.10;;
9834;SDS011;4956;50.996;13.716;2023-04-25T16:08:06;8.05;;;2.80;;
9834;SDS011;4956;50.996;13.716;2023-04-25T16:11:27;15.30;;;2.78;;
9834;SDS011;4956;50.996;13.716;2023-04-25T16:14:49;7.90;;;2.90;;
9834;SDS011;4956;50.996;13.716;2023-04-25T16:18:09;9.32;;;2.70;;
9834;SDS011;4956;50.996;13.716;2023-04-25T16:21:31;8.02;;;2.90;;
9834;SDS011;4956;50.996;13.716;2023-04-25T16:24:52;12.30;;;2.92;;
9834;SDS011;4956;50.996;13.716;2023-04-25T16:28:12;10.50;;;3.10;;
9834;SDS011;4956;50.996;13.716;2023-04-25T16:31:33;9.27;;;3.42;;
9834;SDS011;4956;50.996;13.716;2023-04-25T16:34:55;9.25;;;2.97;;
9834;SDS011;4956;50.996;13.716;2023-04-25T16:38:16;10.35;;;2.90;;
9834;SDS011;4956;50.996;13.716;2023-04-25T16:41:36;9.43;;;3.00;;
9834;SDS011;4956;50.996;13.716;2023-04-25T16:44:57;12.90;;;3.08;;
9834;SDS011;4956;50.996;13.716;2023-04-25T16:48:17;7.78;;;2.78;;
9834;SDS011;4956;50.996;13.716;2023-04-25T16:51:39;8.35;;;2.80;;
9834;SDS011;4956;50.996;13.716;2023-04-25T16:55:00;10.18;;;3.28;;
9834;SDS011;4956;50.996;13.716;2023-04-25T16:58:21;9.40;;;4.00;;
9834;SDS011;4956;50.996;13.716;2023-04-25T17:01:42;8.63;;;3.35;;
9834;SDS011;4956;50.996;13.716;2023-04-25T17:05:03;12.00;;;4.63;;
9834;SDS011;4956;50.996;13.716;2023-04-25T17:08:24;5.72;;;2.35;;
9834;SDS011;4956;50.996;13.716;2023-04-25T17:11:45;6.45;;;2.50;;
9834;SDS011;4956;50.996;13.716;2023-04-25T17:15:06;9.38;;;2.30;;
9834;SDS011;4956;50.996;13.716;2023-04-25T17:18:27;6.45;;;2.08;;
9834;SDS011;4956;50.996;13.716;2023-04-25T17:21:47;12.13;;;2.60;;
9834;SDS011;4956;50.996;13.716;2023-04-25T17:25:08;7.20;;;2.10;;
9834;SDS011;4956;50.996;13.716;2023-04-25T17:28:29;8.38;;;2.60;;
9834;SDS011;4956;50.996;13.716;2023-04-25T17:31:50;5.63;;;2.22;;
9834;SDS011;4956;50.996;13.716;2023-04-25T17:35:11;6.90;;;2.35;;
9834;SDS011;4956;50.996;13.716;2023-04-25T17:38:33;4.82;;;2.28;;
9834;SDS011;4956;50.996;13.716;2023-04-25T17:41:54;8.88;;;2.70;;
9834;SDS011;4956;50.996;13.716;2023-04-25T17:45:15;5.88;;;2.22;;
9834;SDS011;4956;50.996;13.716;2023-04-25T17:48:36;8.07;;;2.83;;
9834;SDS011;4956;50.996;13.716;2023-04-25T17:51:57;10.27;;;2.70;;
9834;SDS011;4956;50.996;13.716;2023-04-25T17:55:18;6.47;;;2.55;;
9834;SDS011;4956;50.996;13.716;2023-04-25T17:58:38;9.00;;;2.60;;
9834;SDS011;4956;50.996;13.716;2023-04-25T18:01:59;7.00;;;2.78;;
9834;SDS011;4956;50.996;13.716;2023-04-25T18:05:20;7.60;;;2.80;;
9834;SDS011;4956;50.996;13.716;2023-04-25T18:08:41;9.50;;;3.00;;
9834;SDS011;4956;50.996;13.716;2023-04-25T18:12:03;7.65;;;2.78;;
9834;SDS011;4956;50.996;13.716;2023-04-25T18:15:24;9.02;;;2.47;;
9834;SDS011;4956;50.996;13.716;2023-04-25T18:18:48;11.10;;;2.90;;
9834;SDS011;4956;50.996;13.716;2023-04-25T18:22:12;7.50;;;2.83;;
9834;SDS011;4956;50.996;13.716;2023-04-25T18:25:32;8.73;;;3.08;;
9834;SDS011;4956;50.996;13.716;2023-04-25T18:28:53;6.30;;;3.03;;
9834;SDS011;4956;50.996;13.716;2023-04-25T18:32:13;7.97;;;2.90;;
9834;SDS011;4956;50.996;13.716;2023-04-25T18:35:34;7.03;;;2.50;;
9834;SDS011;4956;50.996;13.716;2023-04-25T18:38:55;8.00;;;2.22;;
9834;SDS011;4956;50.996;13.716;2023-04-25T18:42:15;7.05;;;2.70;;
9834;SDS011;4956;50.996;13.716;2023-04-25T18:45:38;7.85;;;2.60;;
9834;SDS011;4956;50.996;13.716;2023-04-25T18:48:59;7.90;;;3.03;;
9834;SDS011;4956;50.996;13.716;2023-04-25T18:52:20;7.25;;;3.13;;
9834;SDS011;4956;50.996;13.716;2023-04-25T18:55:41;6.65;;;3.40;;
9834;SDS011;4956;50.996;13.716;2023-04-25T18:59:02;8.70;;;4.18;;
9834;SDS011;4956;50.996;13.716;2023-04-25T19:02:23;7.68;;;3.67;;
9834;SDS011;4956;50.996;13.716;2023-04-25T19:05:45;6.35;;;2.78;;
9834;SDS011;4956;50.996;13.716;2023-04-25T19:09:05;4.25;;;2.65;;
9834;SDS011;4956;50.996;13.716;2023-04-25T19:12:27;9.82;;;3.10;;
9834;SDS011;4956;50.996;13.716;2023-04-25T19:15:47;6.43;;;3.30;;
9834;SDS011;4956;50.996;13.716;2023-04-25T19:19:08;8.48;;;3.20;;
9834;SDS011;4956;50.996;13.716;2023-04-25T19:22:29;8.90;;;3.72;;
9834;SDS011;4956;50.996;13.716;2023-04-25T19:25:49;18.02;;;8.43;;
9834;SDS011;4956;50.996;13.716;2023-04-25T19:29:11;13.77;;;6.85;;
9834;SDS011;4956;50.996;13.716;2023-04-25T19:32:33;8.13;;;5.03;;
9834;SDS011;4956;50.996;13.716;2023-04-25T19:35:55;10.85;;;4.57;;
9834;SDS011;4956;50.996;13.716;2023-04-25T19:39:15;7.68;;;4.18;;
9834;SDS011;4956;50.996;13.716;2023-04-25T19:42:36;9.20;;;4.40;;
9834;SDS011;4956;50.996;13.716;2023-04-25T19:45:56;10.45;;;3.70;;
9834;SDS011;4956;50.996;13.716;2023-04-25T19:49:17;6.93;;;3.17;;
9834;SDS011;4956;50.996;13.716;2023-04-25T19:52:38;8.73;;;3.38;;
9834;SDS011;4956;50.996;13.716;2023-04-25T19:55:58;6.88;;;3.03;;
9834;SDS011;4956;50.996;13.716;2023-04-25T19:59:19;9.82;;;3.50;;
9834;SDS011;4956;50.996;13.716;2023-04-25T20:02:40;7.00;;;3.15;;
9834;SDS011;4956;50.996;13.716;2023-04-25T20:06:04;5.75;;;2.97;;
9834;SDS011;4956;50.996;13.716;2023-04-25T20:09:24;6.35;;;3.05;;
9834;SDS011;4956;50.996;13.716;2023-04-25T20:12:45;6.75;;;3.00;;
9834;SDS011;4956;50.996;13.716;2023-04-25T20:16:06;9.07;;;3.30;;
9834;SDS011;4956;50.996;13.716;2023-04-25T20:19:27;7.90;;;3.20;;
9834;SDS011;4956;50.996;13.716;2023-04-25T20:22:47;9.18;;;3.03;;
9834;SDS011;4956;50.996;13.716;2023-04-25T20:26:10;7.85;;;3.35;;
9834;SDS011;4956;50.996;13.716;2023-04-25T20:29:31;8.40;;;3.22;;
9834;SDS011;4956;50.996;13.716;2023-04-25T20:32:52;6.95;;;3.20;;
9834;SDS011;4956;50.996;13.716;2023-04-25T20:36:13;7.47;;;3.42;;
9834;SDS011;4956;50.996;13.716;2023-04-25T20:39:34;11.65;;;3.75;;
9834;SDS011;4956;50.996;13.716;2023-04-25T20:42:55;9.85;;;3.55;;